createdAt,value
2018-04-11T00:01:01.715Z,10.05
2018-04-11T00:05:57.916Z,7.30
2018-04-11T00:15:46.871Z,11.10
2018-04-11T00:18:15.196Z,8.43
2018-04-11T00:20:42.733Z,11.50
2018-04-11T00:25:38.184Z,11.80
2018-04-11T00:28:06.499Z,9.53
2018-04-11T00:30:34.056Z,10.95
2018-04-11T00:33:01.638Z,14.50
2018-04-11T00:35:29.253Z,7.55
2018-04-11T00:37:56.827Z,11.07
2018-04-11T00:40:24.424Z,13.70
2018-04-11T00:42:51.998Z,20.45
2018-04-11T00:45:19.548Z,10.35
2018-04-11T00:47:47.099Z,12.55
2018-04-11T00:50:14.642Z,8.07
2018-04-11T00:53:02.939Z,13.30
2018-04-11T00:55:30.554Z,13.90
2018-04-11T00:57:58.119Z,18.85
2018-04-11T01:00:25.685Z,20.05
2018-04-11T01:02:53.259Z,12.55
2018-04-11T01:05:20.847Z,23.20
2018-04-11T01:07:48.420Z,19.50
2018-04-11T01:10:16.015Z,18.60
2018-04-11T01:12:44.336Z,17.90
2018-04-11T01:15:11.912Z,12.90
2018-04-11T01:17:39.497Z,23.17
2018-04-11T01:20:07.052Z,17.08
2018-04-11T01:22:34.600Z,18.80
2018-04-11T01:25:02.190Z,15.88
2018-04-11T01:27:29.737Z,14.90
2018-04-11T01:29:57.309Z,20.77
2018-04-11T01:32:24.891Z,15.40
2018-04-11T01:34:52.472Z,19.05
2018-04-11T01:37:20.790Z,19.25
2018-04-11T01:39:48.359Z,18.95
2018-04-11T01:42:15.934Z,15.90
2018-04-11T01:44:44.266Z,18.10
2018-04-11T01:47:12.579Z,19.20
2018-04-11T01:49:40.127Z,23.52
2018-04-11T01:52:07.674Z,19.15
2018-04-11T01:54:35.988Z,16.77
2018-04-11T01:57:03.546Z,14.25
2018-04-11T01:59:31.096Z,14.77
2018-04-11T02:01:58.667Z,17.40
2018-04-11T02:04:26.261Z,20.25
2018-04-11T02:06:53.835Z,18.23
2018-04-11T02:09:21.412Z,18.98
2018-04-11T02:11:49.067Z,20.35
2018-04-11T02:14:16.663Z,22.30
2018-04-11T02:16:44.209Z,23.90
2018-04-11T02:19:11.778Z,18.02
2018-04-11T02:21:39.352Z,13.62
2018-04-11T02:24:06.934Z,20.23
2018-04-11T02:26:35.256Z,17.10
2018-04-11T02:29:02.874Z,19.37
2018-04-11T02:31:31.226Z,17.85
2018-04-11T02:33:58.787Z,14.48
2018-04-11T02:36:26.356Z,20.92
2018-04-11T02:38:53.931Z,17.80
2018-04-11T02:41:21.503Z,19.05
2018-04-11T02:43:49.815Z,15.70
2018-04-11T02:46:17.369Z,14.10
2018-04-11T02:48:44.947Z,21.27
2018-04-11T02:51:12.520Z,15.40
2018-04-11T02:53:40.115Z,18.02
2018-04-11T02:56:07.672Z,16.08
2018-04-11T02:58:35.986Z,16.85
2018-04-11T03:01:03.551Z,19.92
2018-04-11T03:03:31.858Z,18.40
2018-04-11T03:05:59.453Z,16.08
2018-04-11T03:08:27.022Z,15.98
2018-04-11T03:10:54.584Z,17.45
2018-04-11T03:13:22.150Z,19.17
2018-04-11T03:15:49.719Z,16.67
2018-04-11T03:18:17.287Z,17.35
2018-04-11T03:20:44.859Z,14.10
2018-04-11T03:23:12.451Z,17.85
2018-04-11T03:25:40.754Z,15.00
2018-04-11T03:28:08.331Z,16.40
2018-04-11T03:30:35.915Z,20.95
2018-04-11T03:33:03.500Z,14.68
2018-04-11T03:35:31.051Z,18.08
2018-04-11T03:37:58.626Z,17.92
2018-04-11T03:40:26.235Z,14.70
2018-04-11T03:42:54.560Z,18.95
2018-04-11T03:45:22.145Z,20.20
2018-04-11T03:47:49.698Z,19.12
2018-04-11T03:50:18.036Z,17.12
2018-04-11T03:52:45.588Z,19.05
2018-04-11T03:55:13.904Z,16.55
2018-04-11T03:57:41.443Z,12.90
2018-04-11T04:00:09.046Z,14.38
2018-04-11T04:02:36.592Z,23.15
2018-04-11T04:05:04.172Z,18.83
2018-04-11T04:07:31.748Z,15.25
2018-04-11T04:09:59.329Z,20.92
2018-04-11T04:12:26.887Z,13.10
2018-04-11T04:15:06.127Z,20.02
2018-04-11T04:17:45.464Z,15.02
2018-04-11T04:20:34.664Z,21.37
2018-04-11T04:23:02.209Z,23.25
2018-04-11T04:25:29.848Z,21.15
2018-04-11T04:27:57.409Z,18.75
2018-04-11T04:30:24.983Z,14.77
2018-04-11T04:32:53.327Z,16.12
2018-04-11T04:35:20.875Z,17.08
2018-04-11T04:37:48.443Z,18.75
2018-04-11T04:40:16.033Z,17.10
2018-04-11T04:42:43.577Z,19.98
2018-04-11T04:45:11.155Z,15.50
2018-04-11T04:47:38.703Z,19.35
2018-04-11T04:50:06.291Z,21.50
2018-04-11T04:52:33.847Z,20.05
2018-04-11T04:55:01.387Z,21.25
2018-04-11T04:57:28.946Z,28.60
2018-04-11T04:59:56.538Z,23.55
2018-04-11T05:02:24.115Z,26.40
2018-04-11T05:04:51.693Z,27.08
2018-04-11T05:07:19.252Z,19.33
2018-04-11T05:09:46.832Z,16.37
2018-04-11T05:12:15.178Z,29.98
2018-04-11T05:14:42.761Z,25.70
2018-04-11T05:17:10.319Z,25.43
2018-04-11T05:19:37.980Z,25.85
2018-04-11T05:22:05.563Z,24.77
2018-04-11T05:24:33.163Z,28.60
2018-04-11T05:27:00.730Z,37.05
2018-04-11T05:29:28.312Z,41.28
2018-04-11T05:31:55.882Z,36.78
2018-04-11T05:34:23.456Z,32.53
2018-04-11T05:36:50.997Z,31.35
2018-04-11T05:39:18.572Z,27.33
2018-04-11T05:41:46.186Z,30.30
2018-04-11T05:44:14.517Z,28.67
2018-04-11T05:46:42.101Z,26.95
2018-04-11T05:49:09.651Z,27.73
2018-04-11T05:51:37.194Z,31.93
2018-04-11T05:54:04.743Z,30.73
2018-04-11T05:56:32.319Z,36.50
2018-04-11T05:58:59.871Z,38.10
2018-04-11T06:01:28.174Z,32.58
2018-04-11T06:03:55.722Z,26.00
2018-04-11T06:06:23.291Z,34.42
2018-04-11T06:08:50.856Z,28.40
2018-04-11T06:11:18.398Z,28.25
2018-04-11T06:13:46.739Z,27.87
2018-04-11T06:16:14.305Z,29.83
2018-04-11T06:18:41.867Z,31.73
2018-04-11T06:21:10.213Z,30.92
2018-04-11T06:23:37.779Z,29.33
2018-04-11T06:26:05.363Z,35.03
2018-04-11T06:28:32.919Z,31.85
2018-04-11T06:31:00.463Z,29.25
2018-04-11T06:33:28.016Z,32.15
2018-04-11T06:35:56.322Z,30.95
2018-04-11T06:38:23.889Z,28.73
2018-04-11T06:40:51.435Z,37.70
2018-04-11T06:43:18.998Z,35.00
2018-04-11T06:45:46.556Z,28.55
2018-04-11T06:48:14.870Z,31.02
2018-04-11T06:50:42.448Z,33.28
2018-04-11T06:53:10.005Z,32.15
2018-04-11T06:55:37.600Z,25.25
2018-04-11T06:58:05.149Z,23.98
2018-04-11T07:00:32.759Z,32.03
2018-04-11T07:03:00.347Z,29.48
2018-04-11T07:05:27.903Z,35.83
2018-04-11T07:07:55.480Z,40.08
2018-04-11T07:10:23.054Z,28.23
2018-04-11T07:12:50.613Z,38.30
2018-04-11T07:15:18.183Z,27.60
2018-04-11T07:17:45.799Z,30.73
2018-04-11T07:20:14.166Z,29.67
2018-04-11T07:22:41.720Z,27.23
2018-04-11T07:25:09.284Z,30.10
2018-04-11T07:59:31.701Z,21.35
2018-04-11T08:19:10.774Z,9.68
2018-04-11T08:21:38.350Z,9.32
2018-04-11T08:24:05.405Z,9.88
2018-04-11T08:26:32.967Z,11.90
2018-04-11T08:29:00.540Z,8.35
2018-04-11T08:31:28.104Z,9.30
2018-04-11T08:33:56.431Z,16.55
2018-04-11T08:36:23.973Z,13.07
2018-04-11T08:38:52.330Z,7.80
2018-04-11T08:41:19.882Z,9.80
2018-04-11T08:43:47.428Z,9.23
2018-04-11T08:46:15.005Z,10.87
2018-04-11T08:48:42.583Z,6.40
2018-04-11T08:51:10.130Z,8.63
2018-04-11T08:53:37.763Z,6.95
2018-04-11T10:14:40.960Z,11.37
2018-04-11T10:17:08.511Z,8.25
2018-04-11T10:19:36.060Z,10.35
2018-04-11T10:22:03.618Z,7.12
2018-04-11T10:24:31.255Z,12.23
2018-04-11T10:26:59.601Z,11.07
2018-04-11T10:29:27.164Z,11.55
2018-04-11T10:31:55.522Z,14.32
2018-04-11T10:34:23.083Z,13.50
2018-04-11T10:36:50.636Z,10.23
2018-04-11T10:39:18.189Z,10.10
2018-04-11T10:41:46.572Z,11.18
2018-04-11T10:44:14.891Z,14.77
2018-04-11T10:46:42.438Z,18.27
2018-04-11T10:49:10.018Z,17.75
2018-04-11T10:51:37.577Z,23.95
2018-04-11T10:54:05.148Z,19.70
2018-04-11T10:56:32.731Z,17.85
2018-04-11T10:59:00.273Z,18.27
2018-04-11T11:01:27.900Z,15.35
2018-04-11T11:03:56.243Z,16.87
2018-04-11T11:06:23.819Z,16.35
2018-04-11T11:08:51.405Z,23.58
2018-04-11T11:11:19.738Z,18.15
2018-04-11T11:13:47.368Z,17.20
2018-04-11T11:16:14.961Z,19.85
2018-04-11T11:18:42.515Z,19.45
2018-04-11T11:21:10.112Z,15.20
2018-04-11T11:23:37.725Z,15.00
2018-04-11T11:26:06.105Z,17.60
2018-04-11T11:28:33.703Z,15.52
2018-04-11T11:31:01.260Z,17.52
2018-04-11T11:33:28.857Z,13.20
2018-04-11T11:35:56.457Z,12.45
2018-04-11T11:38:24.774Z,19.55
2018-04-11T11:40:52.387Z,15.63
2018-04-11T11:43:19.944Z,7.78
2018-04-11T11:45:47.502Z,9.88
2018-04-11T11:48:15.129Z,15.65
2018-04-11T11:50:42.666Z,9.45
2018-04-11T11:53:11.061Z,9.52
2018-04-11T11:55:38.619Z,11.35
2018-04-11T11:58:06.947Z,12.18
2018-04-11T12:00:35.273Z,8.70
2018-04-11T12:03:03.612Z,15.52
2018-04-11T12:05:31.175Z,10.93
2018-04-11T12:07:58.723Z,13.07
2018-04-11T12:10:26.293Z,10.50
2018-04-11T12:12:53.938Z,12.00
2018-04-11T12:15:21.507Z,11.50
2018-04-11T12:17:49.083Z,9.32
2018-04-11T12:20:16.651Z,13.52
2018-04-11T12:22:44.198Z,10.00
2018-04-11T12:25:11.777Z,12.35
2018-04-11T12:27:39.372Z,15.07
2018-04-11T12:30:06.947Z,9.55
2018-04-11T12:32:34.578Z,15.45
2018-04-11T12:35:02.159Z,13.27
2018-04-11T12:37:29.754Z,12.15
2018-04-11T12:39:58.098Z,18.45
2018-04-11T12:42:25.666Z,16.87
2018-04-11T12:44:54.010Z,13.18
2018-04-11T12:47:21.590Z,16.58
2018-04-11T12:49:49.167Z,11.30
2018-04-11T12:52:16.753Z,14.13
2018-04-11T12:54:44.372Z,12.90
2018-04-11T12:57:12.006Z,14.90
2018-04-11T12:59:40.316Z,12.63
2018-04-11T13:02:07.936Z,14.35
2018-04-11T13:04:35.487Z,10.82
2018-04-11T13:07:03.081Z,9.73
2018-04-11T13:09:31.398Z,10.30
2018-04-11T13:11:58.967Z,17.48
2018-04-11T13:14:26.565Z,13.13
2018-04-11T13:16:54.127Z,11.63
2018-04-11T13:19:23.385Z,14.18
2018-04-11T13:21:50.934Z,12.43
2018-04-11T13:24:19.269Z,12.73
2018-04-11T13:26:46.841Z,16.65
2018-04-11T13:29:14.438Z,19.92
2018-04-11T13:31:42.756Z,31.27
2018-04-11T13:34:10.376Z,152.73
2018-04-11T13:36:37.931Z,127.60
2018-04-11T13:39:05.582Z,75.15
2018-04-11T13:41:33.924Z,21.52
2018-04-11T13:44:01.499Z,27.52
2018-04-11T13:46:29.060Z,27.85
2018-04-11T13:48:56.623Z,29.35
2018-04-11T13:51:24.175Z,19.52
2018-04-11T13:53:51.771Z,21.37
2018-04-11T13:56:19.423Z,21.90
2018-04-11T13:58:46.938Z,20.20
2018-04-11T14:01:14.527Z,21.70
2018-04-11T14:03:42.867Z,24.33
2018-04-11T14:06:11.914Z,24.25
2018-04-11T14:08:39.507Z,17.62
2018-04-11T14:11:07.069Z,14.27
2018-04-11T14:13:34.652Z,23.52
2018-04-11T14:16:02.197Z,22.65
2018-04-11T14:18:29.735Z,23.27
2018-04-11T14:20:57.274Z,20.92
2018-04-11T14:23:24.824Z,19.30
2018-04-11T14:25:52.419Z,16.37
2018-04-11T14:28:20.765Z,17.70
2018-04-11T14:30:48.389Z,14.55
2018-04-11T14:33:15.963Z,15.73
2018-04-11T14:35:43.526Z,15.43
2018-04-11T14:38:11.117Z,19.02
2018-04-11T14:40:38.683Z,10.98
2018-04-11T14:43:06.295Z,13.10
2018-04-11T14:45:33.887Z,14.10
2018-04-11T14:48:01.479Z,13.38
2018-04-11T14:50:29.028Z,14.95
2018-04-11T14:52:56.587Z,15.30
2018-04-11T14:55:24.136Z,11.10
2018-04-11T14:57:51.677Z,12.90
2018-04-11T15:00:19.295Z,10.73
2018-04-11T15:02:47.611Z,7.25
2018-04-11T15:05:15.925Z,10.57
2018-04-11T15:07:43.494Z,8.55
2018-04-11T15:10:11.044Z,10.07
2018-04-11T15:12:38.693Z,12.68
2018-04-11T15:15:07.021Z,15.00
2018-04-11T15:17:34.608Z,12.40
2018-04-11T15:20:02.181Z,11.85
2018-04-11T15:22:29.727Z,8.13
2018-04-11T15:24:57.286Z,8.60
2018-04-11T15:27:24.854Z,9.25
2018-04-11T15:29:52.395Z,12.90
2018-04-11T15:32:19.947Z,13.68
2018-04-11T15:34:47.523Z,27.20
2018-04-11T15:37:15.073Z,14.15
2018-04-11T15:39:42.633Z,11.88
2018-04-11T15:42:11.249Z,13.62
2018-04-11T15:44:38.791Z,15.50
2018-04-11T15:47:06.367Z,17.85
2018-04-11T15:49:33.920Z,15.25
2018-04-11T15:52:01.483Z,14.05
2018-04-11T15:54:29.040Z,11.02
2018-04-11T15:56:56.611Z,22.02
2018-04-11T15:59:24.194Z,21.62
2018-04-11T16:01:51.774Z,17.27
2018-04-11T16:04:19.400Z,19.73
2018-04-11T16:06:46.978Z,18.17
2018-04-11T16:09:14.542Z,17.30
2018-04-11T16:11:42.180Z,15.93
2018-04-11T16:14:10.521Z,19.77
2018-04-11T16:16:38.890Z,12.65
2018-04-11T16:19:06.441Z,11.40
2018-04-11T16:21:33.979Z,16.73
2018-04-11T16:24:01.549Z,11.88
2018-04-11T16:26:29.171Z,12.50
2018-04-11T16:28:56.859Z,10.18
2018-04-11T16:31:25.161Z,14.93
2018-04-11T16:33:52.746Z,14.35
2018-04-11T16:36:20.379Z,10.10
2018-04-11T16:38:48.718Z,9.05
2018-04-11T16:41:16.308Z,19.87
2018-04-11T16:43:44.642Z,21.45
2018-04-11T16:46:12.226Z,15.13
2018-04-11T16:48:39.791Z,12.82
2018-04-11T16:51:07.344Z,12.85
2018-04-11T16:53:34.948Z,11.20
2018-04-11T16:56:03.280Z,12.13
2018-04-11T16:58:30.819Z,12.73
2018-04-11T17:00:58.369Z,13.13
2018-04-11T17:03:26.735Z,22.00
2018-04-11T17:05:54.341Z,17.20
2018-04-11T17:08:21.912Z,10.50
2018-04-11T17:10:49.551Z,14.85
2018-04-11T17:13:17.868Z,16.55
2018-04-11T17:15:45.451Z,15.00
2018-04-11T17:18:13.983Z,15.25
2018-04-11T17:20:53.590Z,22.58
2018-04-11T17:23:32.892Z,22.65
2018-04-11T17:26:12.265Z,14.35
2018-04-11T17:28:51.608Z,10.43
2018-04-11T17:31:21.714Z,9.80
2018-04-11T17:33:49.267Z,13.80
2018-04-11T17:36:16.839Z,9.07
2018-04-11T17:38:44.415Z,17.20
2018-04-11T17:41:11.969Z,12.50
2018-04-11T17:43:39.553Z,8.82
2018-04-11T17:46:07.220Z,15.07
2018-04-11T17:48:35.571Z,11.20
2018-04-11T17:51:03.271Z,14.27
2018-04-11T17:53:31.626Z,15.95
2018-04-11T17:55:59.182Z,19.95
2018-04-11T17:58:26.788Z,18.85
2018-04-11T18:00:55.186Z,17.95
2018-04-11T18:03:22.792Z,10.82
2018-04-11T18:05:51.098Z,15.93
2018-04-11T18:08:18.669Z,20.37
2018-04-11T18:10:46.228Z,12.43
2018-04-11T18:13:13.814Z,12.55
2018-04-11T18:15:41.389Z,16.05
2018-04-11T18:18:08.965Z,14.48
2018-04-11T18:20:36.539Z,11.43
2018-04-11T18:23:04.101Z,12.20
2018-04-11T18:25:31.655Z,7.82
2018-04-11T18:27:59.287Z,13.15
2018-04-11T18:30:27.634Z,16.75
2018-04-11T18:32:56.235Z,12.48
2018-04-11T18:35:23.836Z,21.25
2018-04-11T18:37:52.194Z,10.93
2018-04-11T18:40:19.718Z,12.10
2018-04-11T18:42:47.343Z,13.77
2018-04-11T18:45:15.687Z,11.70
2018-04-11T18:47:43.257Z,10.82
2018-04-11T18:50:10.854Z,12.27
2018-04-11T18:52:39.194Z,9.10
2018-04-11T18:55:06.759Z,8.10
2018-04-11T18:57:34.353Z,8.52
2018-04-11T19:00:02.674Z,9.85
2018-04-11T19:02:30.249Z,12.13
2018-04-11T19:04:57.849Z,10.60
2018-04-11T19:07:25.471Z,11.85
2018-04-11T19:09:53.075Z,9.88
2018-04-11T19:12:20.641Z,9.50
2018-04-11T19:14:48.248Z,11.57
2018-04-11T19:17:15.822Z,10.55
2018-04-11T19:19:43.386Z,12.55
2018-04-11T19:22:10.963Z,13.77
2018-04-11T19:24:38.558Z,14.50
2018-04-11T19:27:06.201Z,17.70
2018-04-11T19:29:33.768Z,12.98
2018-04-11T19:32:01.491Z,14.52
2018-04-11T19:34:29.852Z,17.52
2018-04-11T19:36:57.430Z,15.52
2018-04-11T19:39:25.803Z,16.27
2018-04-11T19:41:53.492Z,15.73
2018-04-11T19:44:21.879Z,13.20
2018-04-11T19:46:49.484Z,15.57
2018-04-11T19:49:18.715Z,12.13
2018-04-11T19:51:46.318Z,15.80
2018-04-11T19:54:13.896Z,14.35
2018-04-11T19:56:41.476Z,20.70
2018-04-11T19:59:09.066Z,18.48
2018-04-11T20:01:36.664Z,15.60
2018-04-11T20:04:06.036Z,15.75
2018-04-11T20:06:33.599Z,15.90
2018-04-11T20:09:01.170Z,22.42
2018-04-11T20:11:28.731Z,20.88
2018-04-11T20:13:56.301Z,14.95
2018-04-11T20:16:24.678Z,15.43
2018-04-11T20:18:52.260Z,16.80
2018-04-11T20:21:20.637Z,18.83
2018-04-11T20:23:48.269Z,16.98
2018-04-11T20:26:15.823Z,20.48
2018-04-11T20:28:43.382Z,17.27
2018-04-11T20:31:10.934Z,20.35
2018-04-11T20:33:38.514Z,24.52
2018-04-11T20:36:06.129Z,24.48
2018-04-11T20:38:33.688Z,28.73
2018-04-11T20:41:01.272Z,25.55
2018-04-11T20:43:29.623Z,38.50
2018-04-11T20:45:57.183Z,34.72
2018-04-11T20:48:24.730Z,31.23
2018-04-11T20:50:52.318Z,21.25
2018-04-11T20:53:19.876Z,24.65
2018-04-11T20:55:47.454Z,34.40
2018-04-11T20:58:15.002Z,30.95
2018-04-11T21:00:43.327Z,29.83
2018-04-11T21:03:11.666Z,24.87
2018-04-11T21:05:39.233Z,24.77
2018-04-11T21:08:06.801Z,28.27
2018-04-11T21:10:34.366Z,28.55
2018-04-11T21:13:01.947Z,27.35
2018-04-11T21:15:30.279Z,24.55
2018-04-11T21:17:57.829Z,27.77
2018-04-11T21:20:25.453Z,33.67
2018-04-11T21:22:53.009Z,23.95
2018-04-11T21:25:20.596Z,24.00
2018-04-11T21:27:48.931Z,31.00
2018-04-11T21:30:16.515Z,24.50
2018-04-11T21:32:44.100Z,22.90
2018-04-11T21:35:12.465Z,25.17
2018-04-11T21:37:40.008Z,25.60
2018-04-11T21:40:07.565Z,25.23
2018-04-11T21:42:35.135Z,21.60
2018-04-11T21:45:02.701Z,22.23
2018-04-11T21:47:30.267Z,26.55
2018-04-11T21:49:57.823Z,17.87
2018-04-11T21:52:25.399Z,24.08
2018-04-11T21:54:52.963Z,25.75
2018-04-11T21:57:20.541Z,18.10
2018-04-11T21:59:48.103Z,18.92
2018-04-11T22:02:15.643Z,21.83
2018-04-11T22:04:43.200Z,17.40
2018-04-11T22:07:10.793Z,19.02
2018-04-11T22:09:38.349Z,20.15
2018-04-11T22:12:06.671Z,16.75
2018-04-11T22:14:35.020Z,16.10
2018-04-11T22:17:02.580Z,21.87
2018-04-11T22:19:30.136Z,16.80
2018-04-11T22:21:57.746Z,22.80
2018-04-11T22:24:26.069Z,17.17
2018-04-11T22:26:53.697Z,25.48
2018-04-11T22:29:22.046Z,18.70
2018-04-11T22:31:49.613Z,17.87
2018-04-11T22:34:17.171Z,24.42
2018-04-11T22:36:44.728Z,20.23
2018-04-11T22:39:12.328Z,20.30
2018-04-11T22:41:40.666Z,19.48
2018-04-11T22:44:08.244Z,22.40
2018-04-11T22:46:35.829Z,21.30
2018-04-11T22:49:03.398Z,24.83
2018-04-11T22:51:31.013Z,23.50
2018-04-11T22:53:58.629Z,23.45
2018-04-11T22:56:26.235Z,22.25
2018-04-11T22:58:53.797Z,22.90
2018-04-11T23:01:21.358Z,28.55
2018-04-11T23:03:48.939Z,22.17
2018-04-11T23:06:16.503Z,26.65
2018-04-11T23:08:44.056Z,22.33
2018-04-11T23:11:11.622Z,26.92
2018-04-11T23:13:39.235Z,26.33
2018-04-11T23:16:06.890Z,27.05
2018-04-11T23:18:34.530Z,21.48
2018-04-11T23:21:02.088Z,27.55
2018-04-11T23:23:29.675Z,22.65
2018-04-11T23:25:57.245Z,29.27
2018-04-11T23:28:24.840Z,19.95
2018-04-11T23:30:53.211Z,21.25
2018-04-11T23:33:20.767Z,27.27
2018-04-11T23:35:48.357Z,26.52
2018-04-11T23:38:16.731Z,22.02
2018-04-11T23:40:45.095Z,21.90
2018-04-11T23:43:12.665Z,20.52
2018-04-11T23:45:40.219Z,20.30
2018-04-11T23:48:07.785Z,27.10
2018-04-11T23:50:35.366Z,21.73
2018-04-11T23:53:02.969Z,20.30
2018-04-11T23:55:30.737Z,22.80
2018-04-11T23:57:58.329Z,21.95
